createdAt,value
2023-05-11T00:01:10.289Z,2.05
2023-05-11T00:03:38.403Z,2.00
2023-05-11T00:06:06.184Z,1.80
2023-05-11T00:08:33.627Z,1.70
2023-05-11T00:11:01.634Z,1.87
2023-05-11T00:13:29.384Z,1.83
2023-05-11T00:15:56.946Z,1.77
2023-05-11T00:18:24.611Z,1.87
2023-05-11T00:20:52.069Z,2.00
2023-05-11T00:23:19.452Z,1.95
2023-05-11T00:25:47.097Z,2.05
2023-05-11T00:28:14.497Z,1.95
2023-05-11T00:30:41.988Z,2.03
2023-05-11T00:33:09.655Z,2.10
2023-05-11T00:35:37.263Z,1.73
2023-05-11T00:38:04.738Z,1.87
2023-05-11T00:40:32.732Z,1.95
2023-05-11T00:43:00.342Z,1.90
2023-05-11T00:45:27.974Z,2.45
2023-05-11T00:47:55.731Z,2.00
2023-05-11T00:50:23.254Z,2.33
2023-05-11T00:52:50.771Z,2.10
2023-05-11T00:55:21.736Z,2.50
2023-05-11T00:57:49.175Z,2.03
2023-05-11T01:00:16.990Z,1.90
2023-05-11T01:02:45.711Z,2.50
2023-05-11T01:05:13.531Z,2.30
2023-05-11T01:07:47.820Z,1.70
2023-05-11T01:10:22.961Z,2.00
2023-05-11T01:12:53.386Z,1.80
2023-05-11T01:15:36.931Z,1.90
2023-05-11T01:18:25.994Z,1.90
2023-05-11T01:20:58.633Z,2.10
2023-05-11T01:23:32.177Z,2.05
2023-05-11T01:26:11.531Z,1.98
2023-05-11T01:29:03.762Z,2.30
2023-05-11T01:31:32.639Z,1.85
2023-05-11T01:34:12.393Z,2.08
2023-05-11T01:36:49.607Z,2.00
2023-05-11T01:39:22.312Z,2.20
2023-05-11T01:41:53.436Z,1.85
2023-05-11T01:44:22.905Z,2.10
2023-05-11T01:46:51.462Z,2.00
2023-05-11T01:49:19.937Z,1.77
2023-05-11T01:51:49.503Z,1.90
2023-05-11T01:54:19.224Z,2.08
2023-05-11T01:56:48.042Z,2.72
2023-05-11T01:59:17.169Z,2.22
2023-05-11T02:01:44.986Z,2.00
2023-05-11T02:04:15.538Z,1.77
2023-05-11T02:06:43.606Z,2.45
2023-05-11T02:09:12.324Z,2.12
2023-05-11T02:11:40.494Z,2.20
2023-05-11T02:14:10.230Z,1.80
2023-05-11T02:16:37.836Z,2.33
2023-05-11T02:19:07.730Z,2.08
2023-05-11T02:21:37.304Z,2.12
2023-05-11T02:24:06.479Z,2.10
2023-05-11T02:26:34.164Z,2.10
2023-05-11T02:29:01.940Z,1.92
2023-05-11T02:31:30.739Z,2.20
2023-05-11T02:34:04.734Z,2.20
2023-05-11T02:36:33.624Z,2.00
2023-05-11T02:39:07.173Z,2.00
2023-05-11T02:41:39.774Z,2.87
2023-05-11T02:44:09.607Z,2.03
2023-05-11T02:46:38.696Z,2.20
2023-05-11T02:49:08.835Z,2.20
2023-05-11T02:51:38.113Z,1.62
2023-05-11T02:54:12.866Z,1.92
2023-05-11T02:56:41.313Z,2.28
2023-05-11T02:59:09.310Z,2.00
2023-05-11T03:01:37.122Z,2.33
2023-05-11T03:04:05.653Z,2.33
2023-05-11T03:06:33.603Z,1.70
2023-05-11T03:09:01.820Z,1.90
2023-05-11T03:11:30.612Z,2.03
2023-05-11T03:13:58.749Z,2.10
2023-05-11T03:16:26.826Z,2.30
2023-05-11T03:18:55.544Z,2.05
2023-05-11T03:21:23.809Z,2.17
2023-05-11T03:23:51.762Z,2.45
2023-05-11T03:26:21.276Z,2.22
2023-05-11T03:28:50.936Z,2.25
2023-05-11T03:31:18.818Z,2.40
2023-05-11T03:33:46.289Z,2.20
2023-05-11T03:36:14.824Z,2.25
2023-05-11T03:38:42.861Z,2.70
2023-05-11T03:41:14.436Z,2.17
2023-05-11T03:43:43.447Z,2.28
2023-05-11T03:46:12.362Z,2.80
2023-05-11T03:48:41.690Z,1.90
2023-05-11T03:51:10.343Z,2.30
2023-05-11T03:53:38.304Z,2.37
2023-05-11T03:56:09.229Z,2.80
2023-05-11T03:58:40.518Z,2.20
2023-05-11T04:01:11.539Z,2.40
2023-05-11T04:03:52.708Z,3.28
2023-05-11T04:06:20.570Z,2.40
2023-05-11T04:08:48.809Z,2.00
2023-05-11T04:11:16.258Z,2.37
2023-05-11T04:13:43.636Z,2.35
2023-05-11T04:16:11.380Z,2.50
2023-05-11T04:18:38.950Z,2.12
2023-05-11T04:21:06.385Z,2.12
2023-05-11T04:23:34.085Z,2.12
2023-05-11T04:26:01.524Z,1.70
2023-05-11T04:28:29.480Z,2.17
2023-05-11T04:30:58.708Z,1.83
2023-05-11T04:33:26.198Z,2.15
2023-05-11T04:35:54.873Z,2.15
2023-05-11T04:38:23.078Z,1.85
2023-05-11T04:40:50.878Z,2.20
2023-05-11T04:43:19.178Z,1.95
2023-05-11T04:45:51.167Z,2.17
2023-05-11T04:50:48.849Z,2.17
2023-05-11T04:53:16.942Z,2.10
2023-05-11T04:55:44.867Z,2.12
2023-05-11T04:58:12.631Z,2.00
2023-05-11T05:00:40.097Z,2.17
2023-05-11T05:03:07.573Z,2.58
2023-05-11T05:05:35.305Z,2.15
2023-05-11T05:08:02.756Z,2.30
2023-05-11T05:10:30.187Z,2.15
2023-05-11T05:12:58.818Z,2.33
2023-05-11T05:15:26.761Z,2.50
2023-05-11T05:17:54.284Z,2.05
2023-05-11T05:20:22.380Z,2.50
2023-05-11T05:22:49.819Z,2.30
2023-05-11T05:25:17.290Z,2.55
2023-05-11T05:27:45.362Z,2.58
2023-05-11T05:30:13.685Z,3.00
2023-05-11T05:32:41.106Z,2.20
2023-05-11T05:35:09.098Z,2.83
2023-05-11T05:37:37.598Z,2.50
2023-05-11T05:40:05.775Z,2.40
2023-05-11T05:42:33.989Z,2.55
2023-05-11T05:45:01.423Z,2.20
2023-05-11T05:47:28.961Z,1.85
2023-05-11T05:49:56.713Z,2.60
2023-05-11T05:52:24.265Z,2.33
2023-05-11T05:54:51.847Z,2.20
2023-05-11T05:57:19.658Z,2.30
2023-05-11T05:59:47.804Z,2.75
2023-05-11T06:02:15.697Z,2.50
2023-05-11T06:04:43.737Z,2.85
2023-05-11T06:07:11.636Z,2.50
2023-05-11T06:09:39.369Z,2.55
2023-05-11T06:12:07.271Z,2.25
2023-05-11T06:14:35.399Z,2.50
2023-05-11T06:17:02.939Z,3.22
2023-05-11T06:19:30.656Z,2.33
2023-05-11T06:21:58.848Z,2.35
2023-05-11T06:24:26.394Z,2.45
2023-05-11T06:26:55.133Z,2.78
2023-05-11T06:29:23.087Z,2.50
2023-05-11T06:31:52.898Z,2.80
2023-05-11T06:34:20.889Z,2.15
2023-05-11T06:36:48.801Z,2.72
2023-05-11T06:39:16.282Z,2.40
2023-05-11T06:41:44.525Z,2.30
2023-05-11T06:44:13.026Z,2.08
2023-05-11T06:46:43.436Z,2.53
2023-05-11T06:49:11.501Z,2.70
2023-05-11T06:51:38.909Z,2.37
2023-05-11T06:54:07.337Z,2.58
2023-05-11T06:56:35.438Z,2.70
2023-05-11T06:59:03.038Z,2.28
2023-05-11T07:01:31.637Z,2.25
2023-05-11T07:03:59.364Z,2.47
2023-05-11T07:06:27.688Z,2.62
2023-05-11T07:08:55.658Z,2.28
2023-05-11T07:11:23.406Z,2.00
2023-05-11T07:13:50.837Z,2.15
2023-05-11T07:16:19.018Z,2.30
2023-05-11T07:18:46.833Z,2.40
2023-05-11T07:21:14.799Z,2.53
2023-05-11T07:23:42.948Z,2.03
2023-05-11T07:26:10.873Z,2.10
2023-05-11T07:28:38.658Z,2.15
2023-05-11T07:31:06.132Z,2.10
2023-05-11T07:33:34.725Z,2.20
2023-05-11T07:36:02.170Z,2.20
2023-05-11T07:38:29.637Z,2.05
2023-05-11T07:40:57.367Z,2.20
2023-05-11T07:43:24.793Z,2.25
2023-05-11T07:45:52.577Z,2.10
2023-05-11T07:48:20.831Z,2.30
2023-05-11T07:50:49.546Z,2.00
2023-05-11T07:53:17.146Z,2.15
2023-05-11T07:55:44.790Z,2.03
2023-05-11T07:58:12.518Z,2.00
2023-05-11T08:00:40.025Z,1.90
2023-05-11T08:03:07.988Z,2.10
2023-05-11T08:05:37.825Z,1.77
2023-05-11T08:08:05.555Z,1.73
2023-05-11T08:10:33.272Z,1.83
2023-05-11T08:13:00.716Z,2.08
2023-05-11T08:15:28.334Z,1.87
2023-05-11T08:17:56.780Z,2.10
2023-05-11T08:20:24.290Z,1.98
2023-05-11T08:22:51.704Z,1.70
2023-05-11T08:25:19.761Z,1.70
2023-05-11T08:27:47.383Z,1.60
2023-05-11T08:30:14.919Z,1.70
2023-05-11T08:35:13.358Z,1.80
2023-05-11T08:37:40.760Z,1.77
2023-05-11T08:40:13.823Z,1.85
2023-05-11T08:42:45.719Z,1.83
2023-05-11T08:45:13.488Z,1.37
2023-05-11T08:47:41.518Z,1.90
2023-05-11T08:50:09.338Z,1.55
2023-05-11T08:52:37.061Z,1.80
2023-05-11T08:55:05.003Z,1.75
2023-05-11T08:57:34.792Z,1.73
2023-05-11T09:00:03.505Z,1.05
2023-05-11T09:02:33.512Z,1.58
2023-05-11T09:05:04.186Z,1.90
2023-05-11T09:07:34.425Z,1.65
2023-05-11T09:10:01.829Z,1.48
2023-05-11T09:12:30.054Z,1.95
2023-05-11T09:15:01.883Z,1.62
2023-05-11T09:17:29.761Z,1.80
2023-05-11T09:20:01.613Z,1.50
2023-05-11T09:22:36.685Z,1.52
2023-05-11T09:25:04.859Z,1.35
2023-05-11T09:27:33.007Z,1.50
2023-05-11T09:30:11.438Z,1.55
2023-05-11T09:32:49.695Z,1.50
2023-05-11T09:35:20.357Z,1.50
2023-05-11T09:38:01.293Z,1.48
2023-05-11T09:40:34.219Z,1.83
2023-05-11T09:43:04.202Z,1.50
2023-05-11T09:45:38.259Z,1.60
2023-05-11T09:48:07.572Z,1.20
2023-05-11T09:50:35.920Z,1.30
2023-05-11T09:53:03.398Z,0.88
2023-05-11T09:55:31.121Z,1.00
2023-05-11T09:57:59.687Z,1.27
2023-05-11T10:00:27.211Z,1.15
2023-05-11T10:03:03.169Z,1.23
2023-05-11T10:05:32.960Z,1.00
2023-05-11T10:08:05.385Z,1.00
2023-05-11T10:13:02.485Z,1.23
2023-05-11T10:15:31.978Z,1.10
2023-05-11T10:18:02.622Z,1.17
2023-05-11T10:20:30.408Z,1.00
2023-05-11T10:22:57.970Z,1.02
2023-05-11T10:25:29.090Z,1.20
2023-05-11T10:27:57.396Z,1.50
2023-05-11T10:30:25.029Z,1.67
2023-05-11T10:32:53.231Z,1.00
2023-05-11T10:35:21.979Z,1.30
2023-05-11T10:37:50.505Z,1.10
2023-05-11T10:40:18.309Z,1.20
2023-05-11T10:43:10.750Z,1.30
2023-05-11T10:45:44.037Z,1.37
2023-05-11T10:48:26.988Z,1.60
2023-05-11T10:51:32.181Z,1.60
2023-05-11T10:54:20.729Z,1.25
2023-05-11T10:57:12.618Z,1.00
2023-05-11T11:00:13.551Z,1.60
2023-05-11T11:02:41.668Z,1.42
2023-05-11T11:05:14.087Z,1.52
2023-05-11T11:08:03.774Z,1.33
2023-05-11T11:10:45.420Z,0.95
2023-05-11T11:13:15.117Z,1.10
2023-05-11T11:16:05.965Z,1.50
2023-05-11T11:18:33.655Z,1.30
2023-05-11T11:21:02.114Z,1.67
2023-05-11T11:23:43.407Z,1.15
2023-05-11T11:26:15.418Z,1.40
2023-05-11T11:28:54.857Z,1.05
2023-05-11T11:31:27.470Z,1.20
2023-05-11T11:34:01.015Z,1.15
2023-05-11T11:37:03.716Z,1.20
2023-05-11T11:39:43.155Z,1.20
2023-05-11T11:42:15.206Z,1.23
2023-05-11T11:44:44.210Z,1.10
2023-05-11T11:47:12.182Z,1.00
2023-05-11T11:49:44.371Z,1.10
2023-05-11T11:52:33.470Z,1.10
2023-05-11T11:55:03.460Z,1.12
2023-05-11T11:57:34.093Z,1.10
2023-05-11T12:00:02.216Z,1.27
2023-05-11T12:02:43.301Z,1.00
2023-05-11T12:07:47.195Z,1.40
2023-05-11T12:10:17.381Z,1.15
2023-05-11T12:12:45.836Z,1.17
2023-05-11T12:15:34.210Z,1.27
2023-05-11T12:18:03.326Z,1.00
2023-05-11T12:20:30.856Z,1.00
2023-05-11T12:22:58.298Z,1.45
2023-05-11T12:25:26.043Z,1.33
2023-05-11T12:27:55.745Z,1.55
2023-05-11T12:30:28.190Z,1.20
2023-05-11T12:32:57.859Z,1.00
2023-05-11T12:35:33.562Z,1.17
2023-05-11T12:38:02.675Z,1.10
2023-05-11T12:40:30.997Z,1.37
2023-05-11T12:42:59.681Z,1.10
2023-05-11T12:45:27.707Z,1.15
2023-05-11T12:47:56.502Z,1.20
2023-05-11T12:50:24.101Z,0.90
2023-05-11T12:52:52.684Z,1.20
2023-05-11T12:55:30.405Z,1.20
2023-05-11T12:58:15.426Z,1.02
2023-05-11T13:00:59.807Z,1.10
2023-05-11T13:03:29.387Z,1.12
2023-05-11T13:06:05.903Z,1.40
2023-05-11T13:08:34.282Z,1.12
2023-05-11T13:11:22.441Z,1.58
2023-05-11T13:13:51.246Z,1.00
2023-05-11T13:16:32.830Z,1.12
2023-05-11T13:19:02.388Z,1.40
2023-05-11T13:21:32.719Z,1.10
2023-05-11T13:24:02.094Z,1.40
2023-05-11T13:26:30.670Z,1.10
2023-05-11T13:29:09.595Z,1.20
2023-05-11T13:31:48.893Z,1.17
2023-05-11T13:34:17.131Z,0.95
2023-05-11T13:36:44.974Z,1.35
2023-05-11T13:39:12.793Z,1.23
2023-05-11T13:41:40.245Z,1.20
2023-05-11T13:44:08.073Z,1.25
2023-05-11T13:46:35.689Z,1.23
2023-05-11T13:49:03.771Z,1.33
2023-05-11T13:51:32.183Z,0.95
2023-05-11T13:54:00.945Z,1.25
2023-05-11T13:56:28.673Z,1.42
2023-05-11T13:58:59.176Z,1.20
2023-05-11T14:01:27.951Z,1.05
2023-05-11T14:03:56.443Z,1.12
2023-05-11T14:06:25.504Z,1.20
2023-05-11T14:08:53.305Z,1.77
2023-05-11T14:11:21.463Z,1.10
2023-05-11T14:13:49.499Z,1.25
2023-05-11T14:16:18.503Z,1.33
2023-05-11T14:18:46.760Z,1.37
2023-05-11T14:21:14.297Z,1.00
2023-05-11T14:23:47.335Z,1.10
2023-05-11T14:26:22.065Z,1.00
2023-05-11T14:28:49.445Z,1.12
2023-05-11T14:31:17.088Z,1.25
2023-05-11T14:33:44.789Z,1.50
2023-05-11T14:36:13.021Z,1.30
2023-05-11T14:38:40.527Z,0.90
2023-05-11T14:41:08.772Z,0.93
2023-05-11T14:43:36.531Z,1.35
2023-05-11T14:46:04.254Z,1.12
2023-05-11T14:48:31.864Z,1.20
2023-05-11T14:50:59.164Z,1.15
2023-05-11T14:53:26.713Z,1.05
2023-05-11T14:55:54.439Z,1.00
2023-05-11T14:58:21.915Z,1.02
2023-05-11T15:00:49.273Z,1.15
2023-05-11T15:03:16.986Z,1.30
2023-05-11T15:05:46.670Z,1.30
2023-05-11T15:08:28.339Z,1.27
2023-05-11T15:13:24.072Z,1.40
2023-05-11T15:15:51.864Z,1.10
2023-05-11T15:18:19.709Z,1.10
2023-05-11T15:20:47.241Z,1.05
2023-05-11T15:23:16.697Z,1.33
2023-05-11T15:25:45.266Z,1.25
2023-05-11T15:28:13.286Z,1.08
2023-05-11T15:30:42.070Z,1.48
2023-05-11T15:33:10.506Z,1.40
2023-05-11T15:35:38.167Z,1.83
2023-05-11T15:38:06.394Z,1.58
2023-05-11T15:40:34.222Z,1.30
2023-05-11T15:43:01.660Z,1.27
2023-05-11T15:45:29.406Z,1.33
2023-05-11T15:47:58.283Z,1.37
2023-05-11T15:50:25.750Z,1.25
2023-05-11T15:52:53.150Z,1.35
2023-05-11T15:55:21.083Z,1.30
2023-05-11T15:57:48.466Z,1.48
2023-05-11T16:00:16.434Z,1.20
2023-05-11T16:02:45.755Z,1.35
2023-05-11T16:05:13.369Z,1.40
2023-05-11T16:07:40.788Z,2.22
2023-05-11T16:10:08.896Z,2.47
2023-05-11T16:12:36.358Z,2.03
2023-05-11T16:15:04.153Z,1.80
2023-05-11T16:17:31.942Z,1.48
2023-05-11T16:20:00.465Z,2.95
2023-05-11T16:22:28.364Z,1.80
2023-05-11T16:24:56.406Z,1.85
2023-05-11T16:27:23.805Z,1.92
2023-05-11T16:29:52.331Z,1.80
2023-05-11T16:32:20.339Z,1.70
2023-05-11T16:34:47.780Z,2.08
2023-05-11T16:37:15.716Z,1.60
2023-05-11T16:39:43.384Z,1.65
2023-05-11T16:42:10.816Z,1.70
2023-05-11T16:44:38.220Z,1.50
2023-05-11T16:47:05.976Z,2.25
2023-05-11T16:49:33.435Z,3.37
2023-05-11T16:52:00.865Z,1.60
2023-05-11T16:54:29.117Z,1.67
2023-05-11T16:56:56.810Z,1.60
2023-05-11T16:59:24.224Z,1.50
2023-05-11T17:01:51.894Z,1.75
2023-05-11T17:04:19.409Z,1.58
2023-05-11T17:06:46.918Z,1.70
2023-05-11T17:09:14.653Z,1.90
2023-05-11T17:11:42.118Z,1.40
2023-05-11T17:14:09.498Z,1.67
2023-05-11T17:16:37.408Z,1.58
2023-05-11T17:19:04.883Z,1.62
2023-05-11T17:21:32.481Z,1.50
2023-05-11T17:24:00.253Z,1.60
2023-05-11T17:26:39.193Z,1.98
2023-05-11T17:29:22.590Z,1.77
2023-05-11T17:31:51.670Z,2.03
2023-05-11T17:34:21.480Z,1.30
2023-05-11T17:36:50.316Z,1.73
2023-05-11T17:39:19.142Z,1.67
2023-05-11T17:41:47.377Z,1.58
2023-05-11T17:44:14.770Z,1.50
2023-05-11T17:46:42.144Z,2.10
2023-05-11T17:49:10.173Z,1.60
2023-05-11T17:51:37.807Z,1.35
2023-05-11T17:54:05.254Z,2.65
2023-05-11T17:56:33.438Z,1.55
2023-05-11T17:59:00.897Z,1.50
2023-05-11T18:01:28.463Z,1.40
2023-05-11T18:03:57.865Z,1.55
2023-05-11T18:06:25.568Z,1.35
2023-05-11T18:08:53.647Z,1.70
2023-05-11T18:11:21.987Z,1.23
2023-05-11T18:13:49.467Z,1.83
2023-05-11T18:16:17.693Z,1.40
2023-05-11T18:18:45.523Z,1.20
2023-05-11T18:21:13.241Z,1.08
2023-05-11T18:23:40.646Z,1.42
2023-05-11T18:26:08.372Z,1.55
2023-05-11T18:28:35.787Z,1.33
2023-05-11T18:31:03.318Z,1.40
2023-05-11T18:33:31.347Z,1.50
2023-05-11T18:35:58.795Z,2.20
2023-05-11T18:38:26.177Z,2.45
2023-05-11T18:40:54.008Z,1.73
2023-05-11T18:43:21.953Z,2.30
2023-05-11T18:45:50.323Z,2.10
2023-05-11T18:48:19.769Z,2.17
2023-05-11T18:50:56.563Z,2.37
2023-05-11T18:53:25.003Z,2.50
2023-05-11T18:55:53.774Z,2.30
2023-05-11T18:58:21.617Z,2.42
2023-05-11T19:00:50.686Z,2.55
2023-05-11T19:03:19.467Z,2.30
2023-05-11T19:05:47.881Z,2.10
2023-05-11T19:08:16.437Z,1.67
2023-05-11T19:10:45.431Z,2.12
2023-05-11T19:13:13.351Z,2.05
2023-05-11T19:15:40.994Z,2.20
2023-05-11T19:18:08.417Z,2.00
2023-05-11T19:20:35.870Z,2.30
2023-05-11T19:23:04.428Z,2.12
2023-05-11T19:25:31.850Z,2.37
2023-05-11T19:27:59.844Z,2.15
2023-05-11T19:30:27.732Z,2.25
2023-05-11T19:32:55.391Z,2.47
2023-05-11T19:35:22.903Z,2.30
2023-05-11T19:37:50.603Z,2.37
2023-05-11T19:40:44.417Z,2.20
2023-05-11T19:43:08.057Z,2.35
2023-05-11T19:45:37.261Z,2.80
2023-05-11T19:48:04.807Z,2.95
2023-05-11T19:50:32.796Z,2.67
2023-05-11T19:53:00.480Z,2.15
2023-05-11T19:55:27.907Z,2.35
2023-05-11T19:57:55.592Z,2.45
2023-05-11T20:00:25.194Z,2.50
2023-05-11T20:02:53.127Z,2.28
2023-05-11T20:05:20.690Z,2.08
2023-05-11T20:07:48.396Z,2.50
2023-05-11T20:10:16.835Z,2.20
2023-05-11T20:12:44.484Z,2.53
2023-05-11T20:15:12.000Z,2.30
2023-05-11T20:17:39.856Z,2.28
2023-05-11T20:20:08.738Z,2.15
2023-05-11T20:22:36.956Z,2.45
2023-05-11T20:25:13.871Z,2.08
2023-05-11T20:27:45.171Z,3.10
2023-05-11T20:30:13.196Z,2.65
2023-05-11T20:34:06.736Z,2.15
2023-05-11T20:35:28.449Z,2.97
2023-05-11T20:37:55.843Z,3.03
2023-05-11T20:40:23.186Z,3.75
2023-05-11T20:42:50.952Z,3.92
2023-05-11T20:45:18.445Z,3.45
2023-05-11T20:47:45.854Z,3.37
2023-05-11T20:50:14.972Z,3.60
2023-05-11T20:52:42.457Z,2.67
2023-05-11T20:55:09.942Z,2.25
2023-05-11T20:57:37.673Z,2.62
2023-05-11T21:00:07.638Z,4.60
2023-05-11T21:02:35.420Z,4.43
2023-05-11T21:05:03.915Z,4.53
2023-05-11T21:07:32.371Z,6.00
2023-05-11T21:10:01.649Z,5.45
2023-05-11T21:12:29.432Z,3.58
2023-05-11T21:14:57.146Z,2.33
2023-05-11T21:17:24.781Z,2.50
2023-05-11T21:19:52.582Z,2.28
2023-05-11T21:22:20.043Z,2.37
2023-05-11T21:24:47.656Z,2.60
2023-05-11T21:27:15.373Z,2.25
2023-05-11T21:29:42.791Z,1.98
2023-05-11T21:32:10.505Z,2.80
2023-05-11T21:34:38.536Z,2.33
2023-05-11T21:37:05.985Z,2.12
2023-05-11T21:39:33.477Z,2.42
2023-05-11T21:42:02.706Z,2.47
2023-05-11T21:44:30.324Z,2.53
2023-05-11T21:46:57.750Z,2.17
2023-05-11T21:49:25.611Z,2.25
2023-05-11T21:51:53.265Z,2.60
2023-05-11T21:54:22.277Z,2.25
2023-05-11T21:56:52.031Z,2.22
2023-05-11T21:59:19.863Z,2.70
2023-05-11T22:01:49.672Z,2.70
2023-05-11T22:04:17.406Z,2.33
2023-05-11T22:06:44.862Z,2.22
2023-05-11T22:09:12.704Z,2.40
2023-05-11T22:11:40.522Z,2.40
2023-05-11T22:14:07.920Z,2.10
2023-05-11T22:16:35.414Z,2.65
2023-05-11T22:19:04.018Z,2.50
2023-05-11T22:21:31.611Z,2.70
2023-05-11T22:23:59.183Z,2.53
2023-05-11T22:26:27.008Z,2.60
2023-05-11T22:28:54.922Z,2.58
2023-05-11T22:31:22.426Z,2.42
2023-05-11T22:33:50.100Z,2.78
2023-05-11T22:36:17.470Z,2.45
2023-05-11T22:38:44.853Z,2.55
2023-05-11T22:41:12.533Z,3.00
2023-05-11T22:43:39.919Z,2.12
2023-05-11T22:46:08.026Z,2.40
2023-05-11T22:48:35.868Z,3.03
2023-05-11T22:51:06.166Z,2.70
2023-05-11T22:53:33.569Z,3.00
2023-05-11T22:56:05.754Z,2.80
2023-05-11T22:58:33.342Z,2.55
2023-05-11T23:01:01.319Z,2.70
2023-05-11T23:03:29.105Z,2.55
2023-05-11T23:05:56.575Z,2.65
2023-05-11T23:08:26.486Z,2.20
2023-05-11T23:10:53.899Z,2.70
2023-05-11T23:13:21.365Z,2.65
2023-05-11T23:15:49.332Z,2.83
2023-05-11T23:18:17.110Z,2.95
2023-05-11T23:20:44.580Z,2.90
2023-05-11T23:23:12.655Z,2.17
2023-05-11T23:25:40.334Z,2.53
2023-05-11T23:28:11.316Z,2.50
2023-05-11T23:30:39.160Z,2.75
2023-05-11T23:33:06.693Z,2.70
2023-05-11T23:35:34.238Z,2.90
2023-05-11T23:38:02.144Z,2.40
2023-05-11T23:40:29.798Z,2.45
2023-05-11T23:42:57.237Z,2.58
2023-05-11T23:45:25.487Z,2.35
2023-05-11T23:47:52.959Z,2.35
2023-05-11T23:50:20.565Z,2.58
2023-05-11T23:52:48.392Z,3.15
2023-05-11T23:55:15.833Z,2.95
2023-05-11T23:57:43.798Z,2.40
